Etusivu
METAR-TAF:

METAR-TAF

Lentoasemat :

Newberry, Michigan, Yhdysvallat

Leveyspiiri: 46-18-40N, Pituuspiiri: 085-27-26W, korkeus merenpinnasta: 265 m

Tämänhetkinen sää

Tämä raportti tehtiin 11 minuuttia sitten, kello 08.16 UTC
Tuuli 3 kn luoteesta
Lämpötila 1°C
Kosteus 93%
Ilmanpaine 1018 hPa
Näkyvyys: 11.3 km
Pilvistä 2000 ft:n korkeudessa

METAR: KERY 010816Z AUTO 32003KT 7SM OVC020 01/00 A3007 RMK AO2 T00120000

Aika: 04:27 (08:27 UTC)


TAF: puuttuu

Säähavainnot ja -ennusteet yli 4000 lentoasemalta (METAR- ja TAF-raportit).

Käytössä olevat sääasemat on merkitty karttaan keltaisilla ja punaisilla pisteillä.

Aseta hiiri pisteen päälle nähdäksesi sääaseman nimen.

Klikkaa sitten nähdäksesi säähavainnot ja -ennusteet.

Kartan vaihtaminen: klikkaa mustalla rastilla varustettuja vihreitä pisteitä, niin voit zoomata sisään; viivalla varustettua vihreää pistettä, niin voit zoomata ulos tai vihreitä nuolia, niin pääset viereisille kartoille.


METAR-TAF: